Time;durP1;ratioP1;P1;durP2;ratioP2;P2;SDS_P1;SDS_P2;PMS_P1;PMS_P2;Temp;Humidity;BMP_temperature;BMP_pressure;BME280_temperature;BME280_humidity;BME280_pressure;Samples;Min_cycle;Max_cycle;Signal;HPM_P1;HPM_P2
2021/12/06 00:00:46;;;;;;;13.62;9.88;;;;;;;-0.60;100.00;99312.69;1758591;79;20974;-74
2021/12/06 00:03:18;;;;;;;18.42;11.73;;;;;;;-0.63;100.00;99308.42;1776088;79;20971;-74
2021/12/06 00:05:45;;;;;;;16.10;10.72;;;;;;;-0.61;100.00;99313.12;1780509;79;21091;-74
2021/12/06 00:08:12;;;;;;;16.30;10.58;;;;;;;-0.60;100.00;99313.97;1776784;79;26691;-74
2021/12/06 00:10:40;;;;;;;18.60;10.68;;;;;;;-0.60;100.00;99316.53;1749996;79;28221;-74
2021/12/06 00:13:07;;;;;;;14.55;9.93;;;;;;;-0.62;100.00;99310.55;1774657;79;21009;-75
2021/12/06 00:15:34;;;;;;;17.17;10.88;;;;;;;-0.62;100.00;99323.37;1778500;79;20966;-74
2021/12/06 00:18:01;;;;;;;15.38;10.68;;;;;;;-0.62;100.00;99319.09;1777108;79;21111;-74
2021/12/06 00:20:28;;;;;;;15.55;10.58;;;;;;;-0.59;100.00;99320.78;1753570;79;21008;-74
2021/12/06 00:22:55;;;;;;;17.90;10.82;;;;;;;-0.59;100.00;99313.09;1763965;79;20978;-74
2021/12/06 00:25:22;;;;;;;16.03;11.37;;;;;;;-0.60;100.00;99316.53;1753475;81;21014;-74
2021/12/06 00:27:49;;;;;;;16.00;11.10;;;;;;;-0.61;100.00;99320.81;1764106;79;20959;-74
2021/12/06 00:30:17;;;;;;;14.93;10.82;;;;;;;-0.59;100.00;99325.91;1766490;79;21989;-74
2021/12/06 00:32:46;;;;;;;14.45;10.72;;;;;;;-0.60;100.00;99332.76;1754217;80;20947;-74
2021/12/06 00:35:19;;;;;;;15.45;9.83;;;;;;;-0.60;100.00;99327.63;1774670;79;21593;-74
2021/12/06 00:37:53;;;;;;;15.30;9.83;;;;;;;-0.60;100.00;99328.06;1735026;82;21532;-74
2021/12/06 00:40:12;;;;;;;15.75;8.90;;;;;;;-0.60;100.00;99337.04;1760097;80;20995;-74
2021/12/06 00:42:39;;;;;;;13.32;9.00;;;;;;;-0.60;100.00;99329.34;1742281;80;21107;-73
2021/12/06 00:45:08;;;;;;;13.00;8.95;;;;;;;-0.61;100.00;99329.79;1707691;82;21061;-74
2021/12/06 00:47:35;;;;;;;11.68;7.80;;;;;;;-0.63;100.00;99329.38;1762246;80;21014;-74
2021/12/06 00:50:06;;;;;;;10.25;7.05;;;;;;;-0.63;100.00;99329.38;1767591;80;21638;-74
2021/12/06 00:52:34;;;;;;;11.97;7.03;;;;;;;-0.65;100.00;99327.25;1756242;80;20998;-74
2021/12/06 00:55:01;;;;;;;;;;;;;;;-0.66;100.00;99337.09;1777746;80;21599;-74
2021/12/06 00:57:28;;;;;;;11.50;5.95;;;;;;;-0.68;100.00;99327.69;1771375;80;20171;-74
2021/12/06 00:59:55;;;;;;;9.93;6.28;;;;;;;-0.71;100.00;99330.28;1744513;81;22502;-74
2021/12/06 01:02:22;;;;;;;8.93;5.90;;;;;;;-0.73;100.00;99341.00;1773278;80;20944;-74
2021/12/06 01:04:51;;;;;;;8.55;5.75;;;;;;;-0.74;100.00;99327.73;1774585;80;26944;-74
2021/12/06 01:07:18;;;;;;;11.10;5.78;;;;;;;-0.76;100.00;99337.14;1768060;80;21625;-74
2021/12/06 01:09:45;;;;;;;7.00;5.33;;;;;;;-0.75;100.00;99327.77;1776290;79;21183;-74
2021/12/06 01:12:13;;;;;;;9.28;5.80;;;;;;;-0.76;100.00;99340.99;1729137;80;21626;-73
2021/12/06 01:14:40;;;;;;;6.65;4.22;;;;;;;-0.78;100.00;99347.87;1734446;81;21061;-74
2021/12/06 01:17:07;;;;;;;9.18;5.78;;;;;;;-0.80;100.00;99348.30;1764343;79;21048;-73
2021/12/06 01:19:36;;;;;;;7.80;5.15;;;;;;;-0.81;100.00;99341.48;1771687;79;21140;-72
2021/12/06 01:22:20;;;;;;;8.18;5.00;;;;;;;-0.81;100.00;99340.61;1747432;79;20950;-73
2021/12/06 01:24:46;;;;;;;7.90;5.37;;;;;;;-0.81;100.00;99348.30;1752700;80;21062;-72
2021/12/06 01:29:48;;;;;;;;;;;;;;;-0.84;100.00;99336.38;1773608;80;21587;-73
2021/12/06 01:40:05;;;;;;;6.62;4.78;;;;;;;-0.87;100.00;99356.88;1768306;80;20952;-74
2021/12/06 01:42:32;;;;;;;7.72;4.72;;;;;;;-0.89;100.00;99343.25;1773546;80;20915;-74
2021/12/06 01:44:59;;;;;;;11.00;5.10;;;;;;;-0.90;100.00;99346.66;1775277;80;21252;-74
2021/12/06 01:47:33;;;;;;;6.35;4.55;;;;;;;-0.89;100.00;99345.81;1757994;79;21551;-74
2021/12/06 01:50:09;;;;;;;6.35;4.87;;;;;;;-0.91;100.00;99342.40;1769887;79;21287;-74
2021/12/06 01:52:40;;;;;;;7.75;4.95;;;;;;;-0.93;100.00;99361.62;1769181;80;21045;-74
2021/12/06 01:55:12;;;;;;;8.08;4.75;;;;;;;-0.92;100.00;99347.12;1734801;81;21105;-74
2021/12/06 01:57:39;;;;;;;7.80;4.87;;;;;;;-0.94;100.00;99360.36;1766277;79;21250;-75
2021/12/06 02:00:14;;;;;;;6.83;5.47;;;;;;;-0.97;100.00;99357.83;1726455;81;21025;-75
2021/12/06 02:02:41;;;;;;;6.42;4.53;;;;;;;-0.98;100.00;99348.02;1731908;81;21761;-74
2021/12/06 02:05:08;;;;;;;7.10;4.85;;;;;;;-1.00;100.00;99347.59;1751574;81;20921;-74
2021/12/06 02:07:35;;;;;;;7.40;4.47;;;;;;;-0.99;100.00;99345.44;1765272;80;21152;-73
2021/12/06 02:10:06;;;;;;;6.33;4.05;;;;;;;-1.00;100.00;99345.03;1766589;80;21110;-74
2021/12/06 02:12:34;;;;;;;4.37;3.95;;;;;;;-1.00;100.00;99342.47;1772681;80;21078;-73
2021/12/06 02:15:07;;;;;;;4.37;3.58;;;;;;;-0.99;100.00;99339.03;1774197;80;21690;-74
2021/12/06 02:17:37;;;;;;;5.60;4.28;;;;;;;-1.01;100.00;99335.63;1769244;79;21521;-74
2021/12/06 02:20:08;;;;;;;5.05;3.12;;;;;;;-1.01;100.00;99351.00;1765422;80;21053;-73
2021/12/06 02:22:39;;;;;;;5.35;3.52;;;;;;;-1.03;100.00;99351.46;1774378;80;22073;-73
2021/12/06 02:25:14;;;;;;;5.42;3.17;;;;;;;-1.03;100.00;99336.09;1771067;80;21052;-74
2021/12/06 02:27:40;;;;;;;5.67;3.80;;;;;;;-1.05;100.00;99333.95;1769781;80;20995;-74
2021/12/06 02:30:10;;;;;;;4.10;3.25;;;;;;;-1.06;100.00;99336.11;1766637;80;21456;-74
2021/12/06 02:32:37;;;;;;;5.53;3.27;;;;;;;-1.08;100.00;99341.66;1766343;80;20943;-74
2021/12/06 02:35:08;;;;;;;3.92;2.98;;;;;;;-1.10;100.00;99340.81;1750515;81;21100;-74
2021/12/06 02:37:35;;;;;;;3.52;2.75;;;;;;;-1.10;100.00;99354.91;1771315;79;20954;-74
2021/12/06 02:40:09;;;;;;;5.20;2.72;;;;;;;-1.15;100.00;99348.12;1770181;79;21635;-74
2021/12/06 02:42:36;;;;;;;4.62;2.40;;;;;;;-1.16;100.00;99365.61;1759353;79;20936;-74
2021/12/06 02:45:07;;;;;;;4.22;2.67;;;;;;;-1.19;100.00;99359.66;1774598;79;20931;-73
2021/12/06 02:47:34;;;;;;;3.30;2.58;;;;;;;-1.22;100.00;99352.84;1771017;79;21924;-74
2021/12/06 02:50:07;;;;;;;3.60;2.17;;;;;;;-1.22;100.00;99359.24;1762695;80;20950;-74
2021/12/06 02:52:31;;;;;;;2.40;1.92;;;;;;;-1.27;100.00;99360.97;1759828;80;21247;-74
2021/12/06 02:55:00;;;;;;;3.12;2.52;;;;;;;-1.27;100.00;99367.38;1749049;80;21090;-74
2021/12/06 02:57:37;;;;;;;4.28;2.52;;;;;;;-1.26;100.00;99361.41;1738781;81;20924;-73
2021/12/06 03:00:11;;;;;;;2.75;1.92;;;;;;;-1.26;100.00;99367.81;1720077;81;21533;-74
2021/12/06 03:02:36;;;;;;;4.15;2.50;;;;;;;-1.26;100.00;99369.10;1772041;78;21089;-74
2021/12/06 03:05:04;;;;;;;4.37;2.70;;;;;;;-1.31;100.00;99370.83;1764950;80;21577;-72
2021/12/06 03:07:36;;;;;;;2.65;2.17;;;;;;;-1.30;100.00;99381.48;1766304;80;21226;-74
2021/12/06 03:10:00;;;;;;;4.08;2.52;;;;;;;-1.33;100.00;99372.53;1765937;80;20960;-74
2021/12/06 03:12:28;;;;;;;4.97;2.30;;;;;;;-1.31;100.00;99381.07;1722928;81;22016;-74
2021/12/06 03:14:59;;;;;;;;;;;;;;;-1.33;100.00;99382.78;1742370;81;21023;-74
2021/12/06 03:17:30;;;;;;;3.87;2.30;;;;;;;-1.35;100.00;99392.17;1764391;79;20136;-73
2021/12/06 03:19:59;;;;;;;5.60;2.10;;;;;;;-1.35;100.00;99381.49;1763424;79;20973;-74
2021/12/06 03:22:28;;;;;;;3.72;2.00;;;;;;;-1.35;100.00;99389.61;1733173;81;21096;-74
2021/12/06 03:24:55;;;;;;;3.58;2.22;;;;;;;-1.37;100.00;99395.19;1753048;80;21090;-74
2021/12/06 03:27:22;;;;;;;3.05;1.82;;;;;;;-1.36;100.00;99387.92;1762441;80;21548;-74
2021/12/06 03:29:49;;;;;;;7.08;2.40;;;;;;;-1.37;100.00;99390.07;1763234;80;25867;-74
2021/12/06 03:32:16;;;;;;;3.40;2.03;;;;;;;-1.42;100.00;99402.04;1762947;79;21022;-74
2021/12/06 03:34:43;;;;;;;4.97;2.30;;;;;;;-1.41;100.00;99392.20;1760881;81;21624;-75
2021/12/06 03:37:11;;;;;;;;;;;;;;;-1.43;100.00;99396.47;1782058;79;21313;-74
2021/12/06 03:39:44;;;;;;;;;;;;;;;-1.43;100.00;99405.44;1774156;79;20185;-74
2021/12/06 03:42:14;;;;;;;4.67;1.98;;;;;;;-1.41;100.00;99394.77;1747519;81;20148;-74
2021/12/06 03:44:41;;;;;;;3.33;2.05;;;;;;;-1.42;100.00;99395.64;1772243;79;21042;-75
2021/12/06 03:47:13;;;;;;;3.98;2.27;;;;;;;-1.44;100.00;99399.91;1770369;79;20962;-75
2021/12/06 03:49:42;;;;;;;3.85;2.30;;;;;;;-1.43;100.00;99396.47;1764895;79;21535;-75
2021/12/06 03:52:10;;;;;;;3.25;2.17;;;;;;;-1.42;100.00;99398.20;1776279;79;21056;-74
2021/12/06 03:54:38;;;;;;;2.87;2.05;;;;;;;-1.44;100.00;99412.70;1777052;79;22294;-75
2021/12/06 03:57:05;;;;;;;2.35;1.98;;;;;;;-1.45;100.00;99418.70;1778977;79;21031;-75
2021/12/06 03:59:33;;;;;;;4.42;2.47;;;;;;;-1.46;100.00;99409.29;1772632;79;20943;-75
2021/12/06 04:01:59;;;;;;;3.83;2.20;;;;;;;-1.46;100.00;99427.22;1762553;79;21111;-75
2021/12/06 04:04:27;;;;;;;3.08;2.02;;;;;;;-1.47;100.00;99424.24;1776632;79;21483;-75
2021/12/06 04:06:54;;;;;;;2.12;1.92;;;;;;;-1.48;100.00;99428.95;1775641;79;20994;-75
2021/12/06 04:09:21;;;;;;;;;;;;;;;-1.47;100.00;99428.94;1771052;79;20958;-75
2021/12/06 04:11:48;;;;;;;3.20;2.17;;;;;;;-1.48;100.00;99436.64;1754882;79;20137;-75
2021/12/06 04:14:15;;;;;;;4.92;2.50;;;;;;;-1.48;100.00;99421.27;1785816;79;21549;-74
2021/12/06 04:16:44;;;;;;;2.40;2.15;;;;;;;-1.50;100.00;99430.66;1756579;78;20989;-75
2021/12/06 04:19:13;;;;;;;3.62;1.90;;;;;;;-1.52;100.00;99431.08;1750625;79;21001;-75
2021/12/06 04:21:42;;;;;;;2.87;2.00;;;;;;;-1.56;100.00;99435.80;1748785;80;21017;-75
2021/12/06 04:24:11;;;;;;;2.17;1.98;;;;;;;-1.58;100.00;99434.08;1769811;79;20992;-75
2021/12/06 04:26:40;;;;;;;2.67;1.45;;;;;;;-1.68;98.96;99438.82;1763137;79;21087;-75
2021/12/06 04:29:08;;;;;;;3.85;1.90;;;;;;;-1.67;99.41;99439.66;1786110;79;21715;-73
2021/12/06 04:31:37;;;;;;;;;;;;;;;-1.68;99.87;99434.98;1783185;79;21310;-73
2021/12/06 04:34:04;;;;;;;4.62;1.92;;;;;;;-1.69;99.95;99447.34;1768990;79;20163;-73
2021/12/06 04:36:31;;;;;;;2.42;1.60;;;;;;;-1.74;99.60;99445.20;1769287;79;21050;-74
2021/12/06 04:38:58;;;;;;;2.50;1.70;;;;;;;-1.77;99.79;99436.26;1774471;79;21588;-74
2021/12/06 04:41:25;;;;;;;2.05;1.72;;;;;;;-1.77;100.00;99449.48;1771995;78;20908;-74
2021/12/06 04:43:52;;;;;;;2.47;1.65;;;;;;;-1.81;99.91;99451.21;1713045;80;20895;-74
2021/12/06 04:46:19;;;;;;;2.20;1.57;;;;;;;-1.84;99.94;99461.45;1756835;79;22276;-74
2021/12/06 04:48:47;;;;;;;2.50;1.70;;;;;;;-1.91;99.33;99459.74;1787469;79;20917;-74
2021/12/06 04:51:14;;;;;;;7.42;1.82;;;;;;;-1.95;99.38;99452.94;1750548;79;21069;-74
2021/12/06 04:53:42;;;;;;;3.40;1.45;;;;;;;-1.95;99.57;99454.22;1752602;79;21059;-74
2021/12/06 04:56:26;;;;;;;3.85;1.62;;;;;;;-2.00;99.00;99462.31;1775658;79;21033;-74
2021/12/06 04:59:02;;;;;;;2.35;1.62;;;;;;;-2.05;99.13;99455.48;1771034;79;20910;-76
2021/12/06 05:01:31;;;;;;;2.20;1.65;;;;;;;-2.08;99.07;99470.84;1773177;79;21014;-75
2021/12/06 05:04:03;;;;;;;1.70;1.50;;;;;;;-2.13;99.19;99470.02;1759841;80;21037;-75
2021/12/06 05:06:33;;;;;;;1.62;1.42;;;;;;;-2.11;99.46;99463.16;1748411;81;20991;-74
2021/12/06 05:09:04;;;;;;;1.50;1.40;;;;;;;-2.10;99.62;99470.01;1773569;79;20947;-75
2021/12/06 05:11:31;;;;;;;5.08;1.92;;;;;;;-2.14;99.22;99470.84;1781574;79;20954;-74
2021/12/06 05:14:02;;;;;;;2.12;1.67;;;;;;;-2.15;99.21;99461.48;1780246;79;21052;-74
2021/12/06 05:16:30;;;;;;;2.47;1.60;;;;;;;-2.19;98.89;99469.98;1776274;79;21494;-84
2021/12/06 05:18:56;;;;;;;3.02;1.80;;;;;;;-2.19;98.87;99469.14;1784077;79;21048;-73
2021/12/06 05:21:23;;;;;;;3.50;2.20;;;;;;;-2.22;98.87;99475.10;1775304;79;22338;-74
2021/12/06 05:23:50;;;;;;;2.37;1.87;;;;;;;-2.17;99.36;99478.52;1775955;79;20946;-74
2021/12/06 05:26:17;;;;;;;3.02;2.20;;;;;;;-2.16;99.36;99477.66;1780692;79;21066;-74
2021/12/06 05:28:46;;;;;;;10.80;1.67;;;;;;;-2.14;99.47;99475.11;1780251;79;21065;-74
2021/12/06 05:31:17;;;;;;;2.92;1.85;;;;;;;-2.14;99.48;99478.52;1764658;79;21251;-74
2021/12/06 05:33:50;;;;;;;3.25;1.70;;;;;;;-2.14;99.65;99470.84;1763813;80;21044;-74
2021/12/06 05:36:16;;;;;;;4.03;1.62;;;;;;;-2.13;99.38;99476.80;1737930;81;20994;-74
2021/12/06 05:38:43;;;;;;;3.70;1.98;;;;;;;-2.16;99.16;99464.87;1761411;80;20942;-73
2021/12/06 05:41:11;;;;;;;4.42;2.50;;;;;;;-2.14;99.52;99482.35;1764937;80;21033;-73
2021/12/06 05:43:37;;;;;;;5.05;2.83;;;;;;;-2.13;99.47;99480.24;1740603;81;28723;-73
2021/12/06 05:46:05;;;;;;;8.77;3.47;;;;;;;-2.13;99.22;99480.24;1716864;81;21016;-73
2021/12/06 05:48:31;;;;;;;5.35;2.52;;;;;;;-2.14;99.21;99492.58;1745826;81;21018;-74
2021/12/06 05:50:58;;;;;;;7.17;2.35;;;;;;;-2.15;99.30;99496.00;1755306;80;21291;-73
2021/12/06 05:53:26;;;;;;;2.72;1.65;;;;;;;-2.16;99.06;99496.84;1754916;80;21112;-74
2021/12/06 05:55:53;;;;;;;2.58;1.95;;;;;;;-2.16;99.22;99493.00;1754012;80;21125;-74
2021/12/06 05:58:26;;;;;;;2.85;1.98;;;;;;;-2.16;99.28;99503.23;1756521;80;20904;-74
2021/12/06 06:00:54;;;;;;;4.37;2.02;;;;;;;-2.17;99.12;99502.82;1757513;80;21587;-72
2021/12/06 06:03:21;;;;;;;3.55;1.90;;;;;;;-2.17;99.13;99498.98;1765066;80;21579;-74
2021/12/06 06:05:49;;;;;;;3.65;2.35;;;;;;;-2.20;98.75;99506.66;1740768;81;21749;-74
2021/12/06 06:08:16;;;;;;;3.33;2.08;;;;;;;-2.21;98.82;99506.24;1730396;81;21005;-75
2021/12/06 06:10:45;;;;;;;3.52;2.05;;;;;;;-2.23;98.75;99509.22;1756052;80;20991;-75
2021/12/06 06:13:12;;;;;;;2.80;2.30;;;;;;;-2.25;98.37;99512.19;1756436;80;21008;-75
2021/12/06 06:15:39;;;;;;;4.28;2.22;;;;;;;-2.26;98.49;99514.33;1759881;80;20982;-76
2021/12/06 06:18:06;;;;;;;3.22;2.27;;;;;;;-2.29;98.29;99522.84;1740879;81;21066;-76
2021/12/06 06:20:39;;;;;;;3.65;2.25;;;;;;;-2.31;98.09;99521.98;1749895;81;21023;-73
2021/12/06 06:23:06;;;;;;;5.10;3.02;;;;;;;-2.29;98.59;99522.00;1758002;80;20950;-74
2021/12/06 06:25:33;;;;;;;;;;;;;;;-2.29;98.73;99519.44;1736863;81;20923;-75
2021/12/06 06:28:01;;;;;;;7.05;3.17;;;;;;;-2.31;98.03;99528.80;1738432;81;20086;-75
2021/12/06 06:30:28;;;;;;;6.85;3.92;;;;;;;-2.34;98.01;99530.09;1765431;78;21241;-75
2021/12/06 06:32:57;;;;;;;7.40;3.80;;;;;;;-2.34;98.29;99528.80;1762184;80;27217;-74
2021/12/06 06:35:25;;;;;;;4.87;3.40;;;;;;;-2.35;98.32;99532.19;1767568;80;21691;-74
2021/12/06 06:37:52;;;;;;;4.03;2.60;;;;;;;-2.37;98.41;99525.81;1765015;80;21034;-74
2021/12/06 06:40:20;;;;;;;5.30;2.75;;;;;;;-2.39;98.05;99536.89;1762139;80;21057;-74
2021/12/06 06:42:47;;;;;;;10.98;3.33;;;;;;;-2.41;98.17;99532.19;1758872;80;21249;-74
2021/12/06 06:45:17;;;;;;;5.10;3.33;;;;;;;-2.44;97.66;99551.36;1765600;80;20989;-74
2021/12/06 06:47:45;;;;;;;5.40;3.20;;;;;;;-2.42;98.22;99545.83;1765495;80;21651;-74
2021/12/06 06:50:12;;;;;;;7.35;3.02;;;;;;;-2.42;98.15;99548.39;1765525;80;21065;-74
2021/12/06 06:52:39;;;;;;;10.50;3.98;;;;;;;-2.41;98.38;99556.48;1768253;80;21042;-74
2021/12/06 06:55:09;;;;;;;6.22;4.28;;;;;;;-2.42;98.08;99553.50;1765909;80;21627;-74
2021/12/06 06:57:37;;;;;;;9.43;6.30;;;;;;;-2.40;98.31;99556.92;1762641;80;21023;-74
2021/12/06 07:00:09;;;;;;;6.08;3.92;;;;;;;-2.39;98.24;99553.51;1768268;79;21601;-73
2021/12/06 07:02:36;;;;;;;6.42;4.60;;;;;;;-2.39;98.36;99566.30;1768873;78;21108;-72
2021/12/06 07:05:04;;;;;;;5.35;3.70;;;;;;;-2.37;98.38;99564.60;1753690;80;20974;-73
2021/12/06 07:07:32;;;;;;;5.60;3.65;;;;;;;-2.36;98.47;99566.30;1742910;81;21078;-73
2021/12/06 07:10:00;;;;;;;6.58;3.55;;;;;;;-2.37;98.16;99574.83;1744469;81;20986;-73
2021/12/06 07:12:27;;;;;;;4.08;2.33;;;;;;;-2.36;98.43;99576.53;1776990;80;21021;-74
2021/12/06 07:14:56;;;;;;;4.87;3.85;;;;;;;-2.34;98.44;99568.44;1754533;80;20954;-74
2021/12/06 07:17:23;;;;;;;7.72;5.78;;;;;;;-2.34;98.27;99559.49;1772472;80;20986;-72
2021/12/06 07:19:49;;;;;;;4.45;3.58;;;;;;;-2.38;97.71;99572.70;1742122;81;21561;-74
2021/12/06 07:22:19;;;;;;;7.50;4.53;;;;;;;-2.41;97.51;99566.70;1753651;81;21588;-74
2021/12/06 07:24:46;;;;;;;6.95;3.95;;;;;;;-2.42;97.83;99567.13;1760736;81;21016;-75
2021/12/06 07:27:14;;;;;;;6.03;4.10;;;;;;;-2.41;97.54;99567.98;1753308;81;21038;-73
2021/12/06 07:29:49;;;;;;;6.20;4.30;;;;;;;-2.44;97.41;99573.09;1749356;80;21032;-74
2021/12/06 07:32:16;;;;;;;6.25;3.85;;;;;;;-2.45;97.57;99567.56;1765943;80;21107;-72
2021/12/06 07:34:42;;;;;;;5.78;3.77;;;;;;;-2.42;97.73;99570.12;1708686;81;21021;-74
2021/12/06 07:37:09;;;;;;;5.22;3.85;;;;;;;-2.41;98.04;99567.98;1737655;82;20989;-75
2021/12/06 07:39:38;;;;;;;5.90;4.42;;;;;;;-2.39;97.52;99573.97;1739885;81;21065;-74
2021/12/06 07:42:05;;;;;;;8.30;4.53;;;;;;;-2.40;97.75;99567.16;1758552;80;20958;-75
2021/12/06 07:44:34;;;;;;;7.92;3.92;;;;;;;-2.41;97.77;99569.27;1762845;80;21317;-75
2021/12/06 07:47:00;;;;;;;8.00;5.22;;;;;;;-2.40;97.86;99568.00;1756988;80;21061;-72
2021/12/06 07:49:27;;;;;;;6.78;4.40;;;;;;;-2.41;97.71;99563.72;1757829;80;20912;-72
2021/12/06 07:51:54;;;;;;;6.92;4.67;;;;;;;-2.40;97.32;99570.56;1760090;80;20978;-72
2021/12/06 07:54:21;;;;;;;8.15;4.12;;;;;;;-2.41;97.26;99570.55;1762855;79;21109;-72
2021/12/06 07:56:48;;;;;;;8.50;5.07;;;;;;;-2.40;97.54;99564.17;1760207;80;22232;-71
2021/12/06 07:59:14;;;;;;;8.70;5.63;;;;;;;-2.38;97.62;99566.71;1755833;80;20978;-73
2021/12/06 08:01:42;;;;;;;10.48;5.30;;;;;;;-2.40;97.62;99562.05;1731165;81;21068;-73
2021/12/06 08:04:09;;;;;;;8.95;6.22;;;;;;;-2.43;97.13;99567.16;1735977;81;21434;-72
2021/12/06 08:06:37;;;;;;;12.88;5.90;;;;;;;-2.48;96.74;99564.14;1758375;81;21545;-72
2021/12/06 08:09:05;;;;;;;9.35;5.55;;;;;;;-2.51;96.86;99566.69;1737635;81;21241;-72
2021/12/06 08:11:31;;;;;;;;;;;;;;;-2.51;97.08;99565.41;1741055;81;21074;-71
2021/12/06 08:13:58;;;;;;;10.90;6.10;;;;;;;-2.48;97.44;99564.14;1743855;81;20521;-72
2021/12/06 08:16:30;;;;;;;10.80;7.05;;;;;;;-2.43;97.64;99570.98;1764980;80;20990;-73
2021/12/06 08:18:59;;;;;;;10.20;6.58;;;;;;;-2.38;97.52;99576.94;1748620;81;21010;-73
2021/12/06 08:21:27;;;;;;;10.80;6.00;;;;;;;-2.36;97.42;99571.41;1761917;79;21299;-72
2021/12/06 08:23:57;;;;;;;9.95;5.80;;;;;;;-2.32;97.61;99573.14;1740002;81;21120;-72
2021/12/06 08:26:27;;;;;;;10.53;5.45;;;;;;;-2.32;97.20;99575.70;1742139;81;21052;-72
2021/12/06 08:28:56;;;;;;;11.38;7.10;;;;;;;-2.30;97.44;99566.30;1764066;79;21078;-73
2021/12/06 08:31:23;;;;;;;10.10;6.12;;;;;;;-2.30;96.97;99566.30;1736652;81;20959;-71
2021/12/06 08:33:53;;;;;;;12.00;6.67;;;;;;;-2.33;96.47;99563.74;1735994;81;21073;-72
2021/12/06 08:36:22;;;;;;;13.00;7.00;;;;;;;-2.33;96.78;99567.58;1762813;79;20930;-72
2021/12/06 08:38:50;;;;;;;9.38;5.12;;;;;;;-2.29;97.03;99569.31;1742989;80;21281;-73
2021/12/06 08:41:21;;;;;;;9.65;3.55;;;;;;;-2.30;96.71;99579.09;1759273;80;20995;-73
2021/12/06 08:43:50;;;;;;;9.78;5.55;;;;;;;-2.30;96.49;99579.09;1738713;81;21693;-71
2021/12/06 08:46:30;;;;;;;15.30;6.92;;;;;;;-2.31;96.30;99571.00;1774032;80;21125;-73
2021/12/06 08:49:15;;;;;;;18.95;8.90;;;;;;;-2.32;96.11;99582.94;1728527;82;21064;-72
2021/12/06 08:51:47;;;;;;;9.13;6.83;;;;;;;-2.34;95.86;99579.95;1767455;80;21060;-73
2021/12/06 08:54:17;;;;;;;10.38;5.62;;;;;;;-2.40;95.04;99588.89;1770747;80;20975;-73
2021/12/06 08:56:44;;;;;;;10.15;5.87;;;;;;;-2.40;95.23;99583.34;1746989;80;20979;-73
2021/12/06 08:59:13;;;;;;;15.85;10.60;;;;;;;-2.40;95.04;99588.45;1766537;80;26689;-73
2021/12/06 09:01:42;;;;;;;22.05;10.58;;;;;;;-2.42;94.93;99593.13;1738197;81;20963;-73
2021/12/06 09:04:12;;;;;;;8.95;5.50;;;;;;;-2.41;95.01;99589.72;1739295;81;21013;-74
2021/12/06 09:06:44;;;;;;;12.85;6.67;;;;;;;-2.43;94.86;99593.56;1738957;81;20998;-71
2021/12/06 09:09:12;;;;;;;11.22;6.40;;;;;;;-2.37;95.57;99594.01;1726582;81;21048;-73
2021/12/06 09:11:44;;;;;;;11.22;6.03;;;;;;;-2.31;95.87;99597.86;1737695;81;21640;-72
2021/12/06 09:14:16;;;;;;;12.37;6.97;;;;;;;-2.24;96.23;99600.88;1762123;80;20966;-72
2021/12/06 09:16:50;;;;;;;17.15;7.65;;;;;;;-2.18;95.58;99596.20;1769898;80;21033;-73
2021/12/06 09:19:17;;;;;;;15.48;7.53;;;;;;;-2.22;95.31;99602.98;1739513;81;21044;-74
2021/12/06 09:21:45;;;;;;;16.90;8.30;;;;;;;-2.23;94.90;99606.41;1743136;81;21040;-74
2021/12/06 09:24:16;;;;;;;23.85;11.28;;;;;;;-2.23;94.99;99605.13;1765442;80;21992;-72
2021/12/06 09:26:45;;;;;;;38.40;22.67;;;;;;;-2.24;95.08;99607.27;1733173;81;21013;-73
2021/12/06 09:29:12;;;;;;;28.83;19.10;;;;;;;-2.25;94.58;99602.98;1739417;81;20949;-73
2021/12/06 09:31:43;;;;;;;29.30;16.52;;;;;;;-2.24;94.76;99602.16;1773321;80;21642;-72
2021/12/06 09:34:10;;;;;;;15.58;8.50;;;;;;;-2.26;94.72;99601.28;1778845;80;21016;-72
2021/12/06 09:36:38;;;;;;;22.40;9.58;;;;;;;-2.20;94.88;99610.25;1754262;80;21647;-72
2021/12/06 09:39:08;;;;;;;18.12;9.63;;;;;;;-2.20;94.82;99608.97;1750554;80;20972;-72
2021/12/06 09:41:35;;;;;;;19.60;12.30;;;;;;;-2.22;94.49;99610.66;1748772;80;21013;-73
2021/12/06 09:44:05;;;;;;;16.07;9.53;;;;;;;-2.23;94.58;99611.52;1773070;80;21014;-73
2021/12/06 09:46:38;;;;;;;13.62;5.35;;;;;;;-2.23;94.66;99607.69;1777382;78;20926;-73
2021/12/06 09:49:14;;;;;;;13.38;6.97;;;;;;;-2.23;94.62;99611.52;1771283;78;21095;-73
2021/12/06 09:51:50;;;;;;;15.68;5.90;;;;;;;-2.17;94.84;99606.41;1771859;79;20943;-74
2021/12/06 09:54:14;;;;;;;12.05;6.60;;;;;;;-2.14;94.91;99613.24;1765702;79;21735;-73
2021/12/06 09:56:43;;;;;;;24.07;11.75;;;;;;;-2.12;94.96;99614.95;1772993;80;21152;-74
2021/12/06 09:59:15;;;;;;;19.77;11.30;;;;;;;-2.08;95.23;99614.09;1772423;80;21005;-74
2021/12/06 10:01:50;;;;;;;16.87;8.95;;;;;;;-2.07;94.82;99615.83;1772187;80;20932;-73
2021/12/06 10:04:20;;;;;;;14.05;7.53;;;;;;;-2.09;94.38;99616.24;1765896;80;20985;-74
2021/12/06 10:06:49;;;;;;;15.70;5.90;;;;;;;-2.16;93.51;99609.39;1767129;80;21469;-74
2021/12/06 10:09:18;;;;;;;9.78;6.25;;;;;;;-2.14;94.39;99610.26;1769003;80;20952;-75
2021/12/06 10:11:46;;;;;;;19.00;11.68;;;;;;;-2.13;94.50;99611.98;1768720;80;21025;-73
2021/12/06 10:14:15;;;;;;;8.18;4.97;;;;;;;-2.07;94.64;99614.98;1764337;80;21094;-74
2021/12/06 10:16:44;;;;;;;10.10;5.92;;;;;;;-2.00;95.00;99613.28;1765186;80;20931;-74
2021/12/06 10:19:13;;;;;;;12.05;5.95;;;;;;;-1.93;94.99;99606.02;1769958;80;21518;-73
2021/12/06 10:21:40;;;;;;;11.65;6.10;;;;;;;-1.91;94.83;99606.88;1767026;80;21823;-75
2021/12/06 10:24:13;;;;;;;;;;;;;;;-1.88;94.77;99608.16;1767742;80;20970;-74
2021/12/06 10:26:40;;;;;;;11.83;5.80;;;;;;;-1.90;94.24;99612.45;1767246;80;21156;-73
2021/12/06 10:29:12;;;;;;;10.17;6.20;;;;;;;-1.94;94.35;99612.00;1769244;80;21659;-73
2021/12/06 10:31:43;;;;;;;6.67;3.50;;;;;;;-1.94;94.18;99595.37;1776525;79;21628;-73
2021/12/06 10:34:17;;;;;;;6.65;3.87;;;;;;;-1.96;93.34;99599.63;1774972;79;21045;-74
2021/12/06 10:36:45;;;;;;;7.58;3.47;;;;;;;-1.98;93.45;99603.91;1756312;79;20989;-75
2021/12/06 10:39:12;;;;;;;4.97;3.08;;;;;;;-2.00;93.90;99607.73;1761112;81;21462;-74
2021/12/06 10:41:39;;;;;;;7.30;4.00;;;;;;;-1.92;94.45;99606.03;1764754;79;21373;-74
2021/12/06 10:44:10;;;;;;;5.85;2.60;;;;;;;-1.85;94.41;99605.61;1748387;81;21096;-74
2021/12/06 10:46:48;;;;;;;5.90;2.02;;;;;;;-1.90;93.64;99612.45;1759480;79;21020;-74
2021/12/06 10:49:23;;;;;;;3.08;1.72;;;;;;;-2.06;91.53;99613.69;1772529;79;20895;-73
2021/12/06 10:51:51;;;;;;;2.72;1.62;;;;;;;-2.11;91.81;99614.09;1770124;79;21921;-75
2021/12/06 10:54:30;;;;;;;;;;;;;;;-2.13;92.32;99606.87;1786198;79;21100;-73
2021/12/06 10:56:52;;;;;;;3.37;1.72;;;;;;;-2.13;92.23;99603.03;1778194;79;20168;-74
2021/12/06 10:59:26;;;;;;;2.58;1.62;;;;;;;-2.10;93.01;99600.48;1778836;79;21025;-73
2021/12/06 11:01:58;;;;;;;5.75;2.45;;;;;;;-2.09;92.45;99612.41;1778473;79;21140;-73
2021/12/06 11:04:28;;;;;;;6.12;2.60;;;;;;;-2.13;90.25;99610.70;1791548;79;21155;-73
2021/12/06 11:07:05;;;;;;;4.95;3.22;;;;;;;-2.18;90.75;99609.83;1781032;79;20980;-73
2021/12/06 11:09:31;;;;;;;5.00;3.10;;;;;;;-2.22;90.89;99608.10;1777222;79;21485;-73
2021/12/06 11:12:01;;;;;;;6.78;4.45;;;;;;;-2.19;91.91;99608.11;1779009;79;21016;-74
2021/12/06 11:14:33;;;;;;;6.60;3.30;;;;;;;-2.14;91.94;99613.24;1783119;79;21057;-74
2021/12/06 11:17:07;;;;;;;5.87;4.00;;;;;;;-2.15;91.39;99614.95;1770480;79;22057;-74
2021/12/06 11:19:36;;;;;;;6.80;3.30;;;;;;;-2.16;91.32;99605.55;1773845;79;21058;-73
2021/12/06 11:22:07;;;;;;;3.72;2.40;;;;;;;-2.18;91.23;99608.55;1762430;79;21540;-73
2021/12/06 11:24:46;;;;;;;3.30;1.92;;;;;;;-2.22;90.41;99614.92;1782908;79;21042;-73
2021/12/06 11:27:17;;;;;;;7.78;2.50;;;;;;;-2.27;90.35;99609.79;1761628;79;20946;-74
2021/12/06 11:29:49;;;;;;;8.85;4.50;;;;;;;-2.28;89.69;99614.05;1762324;80;21090;-76
2021/12/06 11:32:23;;;;;;;6.05;3.62;;;;;;;-2.24;90.70;99612.38;1766062;79;21009;-75
2021/12/06 11:34:54;;;;;;;8.60;4.97;;;;;;;-2.23;89.24;99611.52;1738487;81;21613;-74
2021/12/06 11:37:32;;;;;;;8.43;5.25;;;;;;;-2.22;89.95;99605.55;1758384;80;21640;-71
2021/12/06 11:40:13;;;;;;;8.65;5.62;;;;;;;-2.19;90.41;99608.11;1724367;80;21056;-71
2021/12/06 11:42:59;;;;;;;9.58;4.87;;;;;;;-2.17;90.78;99601.30;1763749;80;21668;-73
2021/12/06 11:45:52;;;;;;;11.57;5.80;;;;;;;-2.08;91.37;99603.87;1762313;79;21040;-72
2021/12/06 11:48:29;;;;;;;9.23;3.77;;;;;;;-2.06;90.34;99603.45;1761585;80;21053;-72